createdAt,value
2023-08-24T00:00:33.451Z,100390.80
2023-08-24T00:03:22.524Z,100388.80
2023-08-24T00:05:50.415Z,100389.34
2023-08-24T00:08:18.318Z,100389.45
2023-08-24T00:10:49.019Z,100389.06
2023-08-24T00:13:16.752Z,100389.39
2023-08-24T00:15:46.167Z,100389.44
2023-08-24T00:18:14.131Z,100393.79
2023-08-24T00:20:42.587Z,100391.05
2023-08-24T00:23:10.157Z,100388.41
2023-08-24T00:25:37.903Z,100390.09
2023-08-24T00:28:06.097Z,100387.71
2023-08-24T00:30:33.848Z,100389.45
2023-08-24T00:33:01.495Z,100389.73
2023-08-24T00:35:29.255Z,100386.75
2023-08-24T00:37:56.837Z,100383.11
2023-08-24T00:40:26.074Z,100385.39
2023-08-24T00:42:54.573Z,100383.96
2023-08-24T00:45:22.437Z,100385.52
2023-08-24T00:47:51.124Z,100382.59
2023-08-24T00:50:20.497Z,100382.02
2023-08-24T00:52:50.460Z,100386.66
2023-08-24T00:55:18.460Z,100385.34
2023-08-24T00:57:46.160Z,100387.20
2023-08-24T01:00:14.724Z,100381.68
2023-08-24T01:02:42.561Z,100383.76
2023-08-24T01:05:10.391Z,100379.53
2023-08-24T01:07:40.783Z,100380.08
2023-08-24T01:10:11.591Z,100378.13
2023-08-24T01:12:58.295Z,100385.75
2023-08-24T01:15:52.897Z,100378.63
2023-08-24T01:18:23.735Z,100381.72
2023-08-24T01:20:55.810Z,100383.20
2023-08-24T01:23:38.524Z,100385.65
2023-08-24T01:26:18.960Z,100392.78
2023-08-24T01:28:47.736Z,100392.25
2023-08-24T01:31:19.799Z,100392.48
2023-08-24T01:33:50.017Z,100390.38
2023-08-24T01:36:18.064Z,100386.60
2023-08-24T01:38:54.894Z,100388.04
2023-08-24T01:41:39.603Z,100391.27
2023-08-24T01:44:09.882Z,100388.13
2023-08-24T01:46:38.805Z,100393.70
2023-08-24T01:49:09.446Z,100392.91
2023-08-24T01:51:37.498Z,100398.58
2023-08-24T01:54:05.749Z,100402.73
2023-08-24T01:56:33.410Z,100403.31
2023-08-24T01:59:01.091Z,100395.25
2023-08-24T02:01:28.832Z,100391.80
2023-08-24T02:03:57.521Z,100390.23
2023-08-24T02:06:25.626Z,100389.54
2023-08-24T02:08:53.405Z,100389.56
2023-08-24T02:11:21.048Z,100386.80
2023-08-24T02:13:48.608Z,100377.67
2023-08-24T02:16:16.700Z,100373.48
2023-08-24T02:18:44.379Z,100374.54
2023-08-24T02:21:16.143Z,100375.64
2023-08-24T02:23:43.829Z,100379.44
2023-08-24T02:26:11.444Z,100376.45
2023-08-24T02:28:39.935Z,100375.52
2023-08-24T02:31:07.657Z,100375.36
2023-08-24T02:33:36.352Z,100372.45
2023-08-24T02:36:05.268Z,100376.78
2023-08-24T02:38:32.862Z,100379.67
2023-08-24T02:41:04.229Z,100378.32
2023-08-24T02:43:32.566Z,100374.09
2023-08-24T02:46:05.549Z,100369.55
2023-08-24T02:48:33.712Z,100371.00
2023-08-24T02:51:05.700Z,100367.88
2023-08-24T02:53:33.571Z,100363.01
2023-08-24T02:56:02.602Z,100359.74
2023-08-24T02:58:31.044Z,100357.04
2023-08-24T03:00:58.689Z,100353.90
2023-08-24T03:03:26.538Z,100353.25
2023-08-24T03:05:54.360Z,100354.28
2023-08-24T03:08:22.095Z,100350.39
2023-08-24T03:10:49.879Z,100352.17
2023-08-24T03:13:18.045Z,100352.45
2023-08-24T03:15:45.930Z,100349.03
2023-08-24T03:18:15.994Z,100352.35
2023-08-24T03:20:46.138Z,100352.84
2023-08-24T03:23:16.373Z,100349.69
2023-08-24T03:25:44.879Z,100346.47
2023-08-24T03:28:12.821Z,100341.77
2023-08-24T03:30:47.451Z,100343.44
2023-08-24T03:33:15.304Z,100340.31
2023-08-24T03:35:43.724Z,100334.94
2023-08-24T03:38:11.680Z,100330.65
2023-08-24T03:40:39.346Z,100322.32
2023-08-24T03:43:06.986Z,100322.20
2023-08-24T03:45:34.613Z,100322.79
2023-08-24T03:48:02.381Z,100317.58
2023-08-24T03:50:30.125Z,100311.66
2023-08-24T03:52:57.963Z,100304.33
2023-08-24T03:55:25.760Z,100301.58
2023-08-24T03:57:55.334Z,100303.35
2023-08-24T04:00:27.256Z,100300.36
2023-08-24T04:02:55.315Z,100294.98
2023-08-24T04:05:25.836Z,100294.13
2023-08-24T04:07:54.492Z,100292.55
2023-08-24T04:10:22.303Z,100290.84
2023-08-24T04:12:50.078Z,100293.77
2023-08-24T04:15:17.646Z,100289.31
2023-08-24T04:17:45.565Z,100292.85
2023-08-24T04:20:13.365Z,100284.83
2023-08-24T04:22:41.234Z,100287.16
2023-08-24T04:25:09.543Z,100284.64
2023-08-24T04:27:38.217Z,100284.31
2023-08-24T04:30:06.876Z,100278.50
2023-08-24T04:32:34.758Z,100274.17
2023-08-24T04:35:02.356Z,100275.75
2023-08-24T04:37:30.108Z,100274.09
2023-08-24T04:39:57.675Z,100269.36
2023-08-24T04:42:25.970Z,100267.80
2023-08-24T04:44:53.588Z,100265.88
2023-08-24T04:47:21.242Z,100262.30
2023-08-24T04:49:48.886Z,100260.39
2023-08-24T04:52:16.575Z,100252.83
2023-08-24T04:54:44.145Z,100256.83
2023-08-24T04:57:11.825Z,100256.80
2023-08-24T04:59:39.555Z,100258.16
2023-08-24T05:02:07.434Z,100260.04
2023-08-24T05:04:35.158Z,100261.59
2023-08-24T05:07:02.882Z,100253.86
2023-08-24T05:09:30.540Z,100259.46
2023-08-24T05:11:58.172Z,100256.86
2023-08-24T05:14:25.784Z,100256.98
2023-08-24T05:16:53.460Z,100261.34
2023-08-24T05:19:21.187Z,100262.46
2023-08-24T05:21:48.849Z,100265.57
2023-08-24T05:24:16.406Z,100262.47
2023-08-24T05:26:44.905Z,100271.33
2023-08-24T05:29:26.437Z,100269.15
2023-08-24T05:31:57.395Z,100276.45
2023-08-24T05:34:25.745Z,100278.65
2023-08-24T05:36:54.403Z,100279.48
2023-08-24T05:39:22.021Z,100284.52
2023-08-24T05:42:22.628Z,100288.31
2023-08-24T05:44:51.347Z,100290.05
2023-08-24T05:47:19.081Z,100291.58
2023-08-24T05:49:46.738Z,100293.19
2023-08-24T05:52:14.361Z,100295.45
2023-08-24T05:54:42.044Z,100289.27
2023-08-24T05:57:09.654Z,100290.79
2023-08-24T05:59:37.333Z,100294.15
2023-08-24T06:02:05.056Z,100301.07
2023-08-24T06:04:32.973Z,100297.59
2023-08-24T06:07:01.103Z,100300.66
2023-08-24T06:09:28.803Z,100298.77
2023-08-24T06:11:56.510Z,100301.61
2023-08-24T06:14:24.072Z,100303.98
2023-08-24T06:16:54.187Z,100301.61
2023-08-24T06:19:22.227Z,100303.39
2023-08-24T06:21:50.030Z,100303.42
2023-08-24T06:24:17.749Z,100306.55
2023-08-24T06:26:45.314Z,100302.02
2023-08-24T06:29:13.262Z,100303.15
2023-08-24T06:31:40.961Z,100304.88
2023-08-24T06:34:10.970Z,100302.56
2023-08-24T06:36:38.558Z,100300.70
2023-08-24T06:39:06.640Z,100298.23
2023-08-24T06:41:36.163Z,100297.33
2023-08-24T06:44:05.427Z,100299.05
2023-08-24T06:46:33.147Z,100300.56
2023-08-24T06:49:00.790Z,100305.67
2023-08-24T06:51:32.211Z,100303.67
2023-08-24T06:53:59.850Z,100300.96
2023-08-24T06:56:27.490Z,100302.41
2023-08-24T06:58:55.103Z,100306.54
2023-08-24T07:01:22.945Z,100308.52
2023-08-24T07:03:50.634Z,100311.49
2023-08-24T07:06:18.394Z,100314.05
2023-08-24T07:08:48.304Z,100315.44
2023-08-24T07:11:16.082Z,100321.02
2023-08-24T07:13:43.799Z,100320.69
2023-08-24T07:16:11.442Z,100319.92
2023-08-24T07:18:39.085Z,100320.01
2023-08-24T07:21:06.690Z,100317.27
2023-08-24T07:23:34.681Z,100318.16
2023-08-24T07:26:02.320Z,100322.31
2023-08-24T07:28:30.943Z,100318.71
2023-08-24T07:30:58.794Z,100315.75
2023-08-24T07:33:26.569Z,100323.36
2023-08-24T07:35:54.196Z,100318.48
2023-08-24T07:38:22.267Z,100318.59
2023-08-24T07:40:50.251Z,100320.79
2023-08-24T07:43:17.969Z,100317.80
2023-08-24T07:45:45.711Z,100321.05
2023-08-24T07:48:13.719Z,100326.52
2023-08-24T07:50:41.450Z,100321.98
2023-08-24T07:53:09.875Z,100326.02
2023-08-24T07:55:37.538Z,100328.44
2023-08-24T07:58:05.101Z,100329.13
2023-08-24T08:00:32.836Z,100332.20
2023-08-24T08:03:00.535Z,100334.96
2023-08-24T08:05:28.536Z,100339.77
2023-08-24T08:07:56.231Z,100338.00
2023-08-24T08:10:23.867Z,100338.55
2023-08-24T08:12:51.551Z,100341.88
2023-08-24T08:15:19.316Z,100338.69
2023-08-24T08:17:47.155Z,100335.27
2023-08-24T08:20:15.360Z,100338.50
2023-08-24T08:22:42.908Z,100335.21
2023-08-24T08:25:10.538Z,100335.92
2023-08-24T08:27:38.502Z,100332.56
2023-08-24T08:30:07.103Z,100335.41
2023-08-24T08:32:34.744Z,100335.41
2023-08-24T08:35:05.075Z,100332.09
2023-08-24T08:37:36.982Z,100332.69
2023-08-24T08:40:08.272Z,100339.93
2023-08-24T08:42:36.913Z,100341.48
2023-08-24T08:45:10.519Z,100341.24
2023-08-24T08:47:39.365Z,100339.27
2023-08-24T08:50:07.578Z,100337.44
2023-08-24T08:52:35.275Z,100337.52
2023-08-24T08:55:08.100Z,100330.06
2023-08-24T08:57:41.338Z,100328.97
2023-08-24T09:00:14.015Z,100326.44
2023-08-24T09:02:45.543Z,100328.23
2023-08-24T09:05:13.680Z,100326.70
2023-08-24T09:07:41.657Z,100324.04
2023-08-24T09:10:09.612Z,100322.98
2023-08-24T09:12:37.344Z,100316.44
2023-08-24T09:15:08.797Z,100306.02
2023-08-24T09:17:36.460Z,100310.12
2023-08-24T09:20:08.339Z,100319.30
2023-08-24T09:22:40.833Z,100320.02
2023-08-24T09:25:11.310Z,100314.39
2023-08-24T09:27:39.350Z,100313.05
2023-08-24T09:30:08.350Z,100312.88
2023-08-24T09:32:36.475Z,100311.27
2023-08-24T09:35:09.166Z,100305.15
2023-08-24T09:37:37.923Z,100300.79
2023-08-24T09:40:08.834Z,100292.02
2023-08-24T09:42:42.811Z,100286.86
2023-08-24T09:45:15.058Z,100291.05
2023-08-24T09:47:47.739Z,100283.16
2023-08-24T09:50:15.648Z,100285.10
2023-08-24T09:52:44.153Z,100283.77
2023-08-24T09:55:15.324Z,100281.65
2023-08-24T09:57:43.705Z,100269.80
2023-08-24T10:00:17.450Z,100265.90
2023-08-24T10:02:55.165Z,100257.08
2023-08-24T10:07:59.331Z,100247.28
2023-08-24T10:10:29.426Z,100247.06
2023-08-24T10:13:11.571Z,100246.94
2023-08-24T10:15:47.378Z,100233.77
2023-08-24T10:18:17.677Z,100232.67
2023-08-24T10:20:46.773Z,100234.67
2023-08-24T10:23:16.830Z,100231.15
2023-08-24T10:25:46.778Z,100240.91
2023-08-24T10:28:17.428Z,100220.84
2023-08-24T10:30:46.872Z,100217.63
2023-08-24T10:33:16.585Z,100221.23
2023-08-24T10:35:46.284Z,100198.73
2023-08-24T10:38:34.883Z,100205.48
2023-08-24T10:41:05.306Z,100202.44
2023-08-24T10:43:38.274Z,100190.84
2023-08-24T10:46:12.888Z,100188.98
2023-08-24T10:48:43.460Z,100192.52
2023-08-24T10:51:27.779Z,100194.24
2023-08-24T10:54:03.906Z,100187.16
2023-08-24T10:56:39.984Z,100186.94
2023-08-24T10:59:14.029Z,100180.91
2023-08-24T11:01:43.633Z,100172.83
2023-08-24T11:04:12.464Z,100170.77
2023-08-24T11:06:57.281Z,100172.58
2023-08-24T11:09:25.517Z,100181.45
2023-08-24T11:12:06.993Z,100176.02
2023-08-24T11:14:52.520Z,100175.35
2023-08-24T11:17:22.574Z,100174.97
2023-08-24T11:19:51.778Z,100171.67
2023-08-24T11:22:19.680Z,100170.20
2023-08-24T11:24:48.024Z,100169.45
2023-08-24T11:27:17.186Z,100181.67
2023-08-24T11:29:44.992Z,100179.78
2023-08-24T11:32:12.807Z,100173.13
2023-08-24T11:34:40.630Z,100157.88
2023-08-24T11:37:19.761Z,100171.31
2023-08-24T11:39:47.352Z,100170.80
2023-08-24T11:42:15.195Z,100159.64
2023-08-24T11:44:50.467Z,100165.95
2023-08-24T11:47:21.368Z,100160.82
2023-08-24T11:49:49.286Z,100163.38
2023-08-24T11:52:18.326Z,100163.48
2023-08-24T11:54:46.730Z,100165.34
2023-08-24T11:57:14.492Z,100158.42
2023-08-24T11:59:43.161Z,100153.77
2023-08-24T12:02:12.280Z,100152.59
2023-08-24T12:04:40.957Z,100145.92
2023-08-24T12:07:12.881Z,100149.74
2023-08-24T12:09:41.541Z,100142.92
2023-08-24T12:12:16.774Z,100135.27
2023-08-24T12:14:46.096Z,100125.45
2023-08-24T12:17:14.772Z,100132.70
2023-08-24T12:20:03.145Z,100139.40
2023-08-24T12:22:30.773Z,100133.84
2023-08-24T12:24:58.719Z,100128.75
2023-08-24T12:27:28.374Z,100121.44
2023-08-24T12:30:01.927Z,100117.04
2023-08-24T12:32:45.219Z,100118.70
2023-08-24T12:35:16.626Z,100115.45
2023-08-24T12:37:44.757Z,100100.45
2023-08-24T12:40:13.766Z,100105.98
2023-08-24T12:42:41.657Z,100102.00
2023-08-24T12:45:09.621Z,100085.46
2023-08-24T12:47:39.010Z,100077.48
2023-08-24T12:50:07.602Z,100067.84
2023-08-24T12:52:35.158Z,100053.76
2023-08-24T12:55:04.466Z,100052.69
2023-08-24T12:57:32.078Z,100054.34
2023-08-24T13:00:00.761Z,100056.31
2023-08-24T13:02:37.140Z,100048.44
2023-08-24T13:05:07.788Z,100056.63
2023-08-24T13:07:36.476Z,100049.14
2023-08-24T13:10:05.844Z,100051.10
2023-08-24T13:12:35.313Z,100052.69
2023-08-24T13:15:03.980Z,100058.19
2023-08-24T13:17:32.019Z,100049.20
2023-08-24T13:19:59.830Z,100027.81
2023-08-24T13:22:27.588Z,100033.62
2023-08-24T13:24:55.392Z,100034.61
2023-08-24T13:27:22.982Z,100022.63
2023-08-24T13:29:50.825Z,100008.86
2023-08-24T13:32:19.802Z,100011.85
2023-08-24T13:34:47.418Z,100008.95
2023-08-24T13:37:15.066Z,100012.91
2023-08-24T13:39:42.729Z,100015.64
2023-08-24T13:42:10.295Z,100021.08
2023-08-24T13:44:38.742Z,100017.59
2023-08-24T13:47:07.296Z,100010.92
2023-08-24T13:49:40.456Z,100000.31
2023-08-24T13:52:09.326Z,99994.86
2023-08-24T13:54:37.079Z,99994.19
2023-08-24T13:57:04.818Z,99990.61
2023-08-24T13:59:33.591Z,99994.09
2023-08-24T14:02:01.314Z,99979.23
2023-08-24T14:04:28.958Z,99978.35
2023-08-24T14:06:56.644Z,99987.53
2023-08-24T14:09:24.198Z,99984.64
2023-08-24T14:11:51.750Z,99968.92
2023-08-24T14:14:19.447Z,99966.11
2023-08-24T14:16:48.866Z,99966.96
2023-08-24T14:19:16.872Z,99967.23
2023-08-24T14:21:45.674Z,99957.52
2023-08-24T14:24:13.471Z,99953.95
2023-08-24T14:26:46.350Z,99943.08
2023-08-24T14:29:15.389Z,99940.59
2023-08-24T14:31:43.290Z,99943.16
2023-08-24T14:34:11.060Z,99950.27
2023-08-24T14:36:38.640Z,99950.70
2023-08-24T14:39:06.307Z,99954.43
2023-08-24T14:41:34.066Z,99952.33
2023-08-24T14:44:02.584Z,99946.04
2023-08-24T14:46:30.277Z,99945.73
2023-08-24T14:48:58.113Z,99945.02
2023-08-24T14:51:25.831Z,99941.35
2023-08-24T14:53:53.382Z,99944.15
2023-08-24T14:56:21.764Z,99949.16
2023-08-24T14:58:49.392Z,99941.92
2023-08-24T15:01:17.289Z,99934.86
2023-08-24T15:03:44.941Z,99934.48
2023-08-24T15:06:12.578Z,99933.45
2023-08-24T15:08:42.115Z,99932.23
2023-08-24T15:11:09.832Z,99928.52
2023-08-24T15:13:39.108Z,99925.69
2023-08-24T15:16:06.714Z,99913.61
2023-08-24T15:18:34.409Z,99906.73
2023-08-24T15:21:02.483Z,99910.05
2023-08-24T15:23:32.018Z,99909.25
2023-08-24T15:26:01.443Z,99913.92
2023-08-24T15:29:02.066Z,99919.45
2023-08-24T15:31:29.794Z,99912.13
2023-08-24T15:33:57.536Z,99908.43
2023-08-24T15:36:25.195Z,99919.45
2023-08-24T15:38:52.799Z,99915.33
2023-08-24T15:41:20.480Z,99901.00
2023-08-24T15:43:48.064Z,99903.58
2023-08-24T15:46:16.127Z,99904.90
2023-08-24T15:48:44.144Z,99899.74
2023-08-24T15:51:12.103Z,99895.54
2023-08-24T15:53:40.064Z,99886.10
2023-08-24T15:56:07.681Z,99887.43
2023-08-24T15:58:35.530Z,99887.80
2023-08-24T16:01:04.258Z,99886.01
2023-08-24T16:03:32.234Z,99877.75
2023-08-24T16:05:59.927Z,99860.67
2023-08-24T16:08:28.212Z,99852.70
2023-08-24T16:10:58.854Z,99855.02
2023-08-24T16:13:26.859Z,99870.70
2023-08-24T16:15:54.429Z,99871.66
2023-08-24T16:18:25.726Z,99872.61
2023-08-24T16:20:53.872Z,99876.95
2023-08-24T16:23:21.524Z,99869.32
2023-08-24T16:25:49.489Z,99873.73
2023-08-24T16:28:17.172Z,99874.38
2023-08-24T16:30:48.476Z,99879.71
2023-08-24T16:33:18.620Z,99886.99
2023-08-24T16:35:47.783Z,99887.03
2023-08-24T16:38:16.497Z,99885.67
2023-08-24T16:40:47.039Z,99882.47
2023-08-24T16:43:14.704Z,99886.23
2023-08-24T16:45:42.353Z,99889.14
2023-08-24T16:48:10.051Z,99887.14
2023-08-24T16:50:37.775Z,99890.08
2023-08-24T16:53:05.539Z,99899.33
2023-08-24T16:55:33.130Z,99898.05
2023-08-24T16:58:00.859Z,99900.61
2023-08-24T17:00:28.791Z,99896.84
2023-08-24T17:02:56.674Z,99897.86
2023-08-24T17:05:24.433Z,99893.53
2023-08-24T17:08:09.206Z,99888.11
2023-08-24T17:10:40.158Z,99895.63
2023-08-24T17:13:08.225Z,99899.54
2023-08-24T17:15:35.921Z,99901.68
2023-08-24T17:18:04.346Z,99910.38
2023-08-24T17:20:39.422Z,99915.80
2023-08-24T17:23:07.276Z,99917.39
2023-08-24T17:25:34.916Z,99927.52
2023-08-24T17:28:02.551Z,99929.67
2023-08-24T17:30:30.394Z,99934.77
2023-08-24T17:32:59.880Z,99939.53
2023-08-24T17:35:29.777Z,99940.90
2023-08-24T17:37:58.468Z,99946.57
2023-08-24T17:40:26.348Z,99947.94
2023-08-24T17:42:54.236Z,99952.87
2023-08-24T17:45:24.507Z,99957.38
2023-08-24T17:47:52.799Z,99963.08
2023-08-24T17:50:20.958Z,99966.93
2023-08-24T17:52:48.744Z,99967.89
2023-08-24T17:55:16.464Z,99970.11
2023-08-24T17:57:44.241Z,99975.38
2023-08-24T18:00:12.520Z,99981.74
2023-08-24T18:02:42.243Z,99985.35
2023-08-24T18:05:10.113Z,99993.67
2023-08-24T18:07:37.799Z,99990.98
2023-08-24T18:10:05.953Z,99989.30
2023-08-24T18:12:33.563Z,99993.65
2023-08-24T18:15:01.144Z,99991.86
2023-08-24T18:17:28.901Z,100001.05
2023-08-24T18:19:56.634Z,100002.58
2023-08-24T18:22:24.267Z,100005.39
2023-08-24T18:24:51.838Z,100007.00
2023-08-24T18:27:19.552Z,100010.91
2023-08-24T18:29:47.372Z,100015.46
2023-08-24T18:32:14.906Z,100017.09
2023-08-24T18:34:42.482Z,100017.95
2023-08-24T18:37:11.684Z,100026.02
2023-08-24T18:39:39.535Z,100030.31
2023-08-24T18:42:07.420Z,100032.64
2023-08-24T18:44:35.290Z,100037.71
2023-08-24T18:47:06.035Z,100044.48
2023-08-24T18:49:33.727Z,100046.03
2023-08-24T18:52:01.751Z,100052.80
2023-08-24T18:54:30.982Z,100062.50
2023-08-24T18:57:00.239Z,100065.91
2023-08-24T18:59:28.740Z,100071.55
2023-08-24T19:01:56.353Z,100075.53
2023-08-24T19:04:24.154Z,100081.14
2023-08-24T19:06:53.389Z,100086.51
2023-08-24T19:09:21.049Z,100088.04
2023-08-24T19:11:48.851Z,100092.23
2023-08-24T19:14:16.618Z,100096.52
2023-08-24T19:16:45.242Z,100100.86
2023-08-24T19:19:12.809Z,100102.63
2023-08-24T19:21:40.393Z,100099.36
2023-08-24T19:24:10.958Z,100098.64
2023-08-24T19:26:38.611Z,100103.05
2023-08-24T19:29:08.170Z,100103.10
2023-08-24T19:31:36.115Z,100100.91
2023-08-24T19:34:04.316Z,100098.54
2023-08-24T19:36:31.901Z,100098.55
2023-08-24T19:38:59.466Z,100100.18
2023-08-24T19:41:27.129Z,100098.35
2023-08-24T19:43:54.816Z,100096.73
2023-08-24T19:46:22.454Z,100095.42
2023-08-24T19:48:50.171Z,100094.70
2023-08-24T19:51:17.815Z,100094.89
2023-08-24T19:53:45.473Z,100092.89
2023-08-24T19:56:13.107Z,100097.10
2023-08-24T19:58:40.767Z,100094.14
2023-08-24T20:01:08.694Z,100097.39
2023-08-24T20:03:36.569Z,100098.38
2023-08-24T20:06:19.797Z,100098.45
2023-08-24T20:08:47.655Z,100093.60
2023-08-24T20:11:15.833Z,100092.48
2023-08-24T20:13:43.971Z,100089.53
2023-08-24T20:16:11.772Z,100095.69
2023-08-24T20:18:40.689Z,100098.09
2023-08-24T20:21:09.831Z,100099.95
2023-08-24T20:23:41.159Z,100101.72
2023-08-24T20:26:14.020Z,100099.61
2023-08-24T20:28:41.995Z,100104.64
2023-08-24T20:31:10.438Z,100104.65
2023-08-24T20:33:39.228Z,100105.45
2023-08-24T20:36:06.885Z,100105.34
2023-08-24T20:38:34.621Z,100104.31
2023-08-24T20:41:04.065Z,100102.80
2023-08-24T20:43:31.914Z,100102.30
2023-08-24T20:45:59.884Z,100104.00
2023-08-24T20:48:27.516Z,100108.58
2023-08-24T20:50:59.644Z,100113.52
2023-08-24T20:53:27.362Z,100116.54
2023-08-24T20:55:55.700Z,100116.36
2023-08-24T20:58:23.409Z,100122.33
2023-08-24T21:00:53.421Z,100122.73
2023-08-24T21:03:21.352Z,100119.22
2023-08-24T21:05:49.506Z,100121.98
2023-08-24T21:08:17.195Z,100118.66
2023-08-24T21:10:44.883Z,100120.54
2023-08-24T21:13:12.918Z,100119.79
2023-08-24T21:15:40.486Z,100121.17
2023-08-24T21:18:08.530Z,100116.94
2023-08-24T21:20:36.340Z,100122.36
2023-08-24T21:23:04.691Z,100128.69
2023-08-24T21:25:32.759Z,100131.41
2023-08-24T21:28:00.571Z,100132.20
2023-08-24T21:30:28.312Z,100133.42
2023-08-24T21:32:56.326Z,100132.06
2023-08-24T21:35:24.046Z,100125.80
2023-08-24T21:37:51.919Z,100125.71
2023-08-24T21:40:23.281Z,100124.59
2023-08-24T21:42:51.163Z,100124.95
2023-08-24T21:45:19.223Z,100124.52
2023-08-24T21:47:47.075Z,100127.99
2023-08-24T21:50:14.775Z,100127.96
2023-08-24T21:52:42.445Z,100126.53
2023-08-24T21:55:10.140Z,100126.19
2023-08-24T21:57:37.797Z,100126.70
2023-08-24T22:00:06.577Z,100127.61
2023-08-24T22:02:34.184Z,100129.75
2023-08-24T22:05:02.055Z,100132.96
2023-08-24T22:07:29.726Z,100136.59
2023-08-24T22:09:57.534Z,100136.03
2023-08-24T22:12:25.298Z,100142.70
2023-08-24T22:14:52.910Z,100145.39
2023-08-24T22:17:20.540Z,100152.16
2023-08-24T22:19:48.277Z,100150.64
2023-08-24T22:22:15.988Z,100151.28
2023-08-24T22:24:43.729Z,100148.71
2023-08-24T22:27:11.315Z,100150.09
2023-08-24T22:29:39.052Z,100148.20
2023-08-24T22:32:10.633Z,100144.80
2023-08-24T22:34:39.225Z,100137.27
2023-08-24T22:37:06.852Z,100139.05
2023-08-24T22:39:34.532Z,100136.99
2023-08-24T22:42:02.100Z,100134.35
2023-08-24T22:44:29.711Z,100128.19
2023-08-24T22:46:57.771Z,100127.92
2023-08-24T22:49:25.384Z,100125.12
2023-08-24T22:51:52.984Z,100123.91
2023-08-24T22:54:20.594Z,100122.39
2023-08-24T22:56:48.350Z,100113.32
2023-08-24T22:59:15.988Z,100112.15
2023-08-24T23:01:43.990Z,100107.36
2023-08-24T23:04:11.727Z,100108.27
2023-08-24T23:07:06.475Z,100103.06
2023-08-24T23:09:36.880Z,100102.10
2023-08-24T23:12:05.121Z,100094.88
2023-08-24T23:14:35.149Z,100091.38
2023-08-24T23:17:03.796Z,100092.14
2023-08-24T23:19:35.264Z,100090.20
2023-08-24T23:22:03.937Z,100085.75
2023-08-24T23:24:49.143Z,100081.41
2023-08-24T23:27:18.934Z,100077.89
2023-08-24T23:29:47.549Z,100072.90
2023-08-24T23:32:17.407Z,100073.29
2023-08-24T23:34:45.446Z,100070.35
2023-08-24T23:37:13.231Z,100068.55
2023-08-24T23:39:41.038Z,100066.44
2023-08-24T23:42:08.769Z,100064.98
2023-08-24T23:44:36.426Z,100063.21
2023-08-24T23:47:04.398Z,100052.12
2023-08-24T23:49:32.001Z,100051.93
2023-08-24T23:51:59.596Z,100051.36
2023-08-24T23:54:27.665Z,100050.35
2023-08-24T23:56:55.249Z,100048.33
2023-08-24T23:59:23.217Z,100046.09
